Time,TemperatureF,DewpointF,PressureIn,WindDirection,WindDirectionDegrees,WindSpeedMPH,WindSpeedGustMPH,Humidity,HourlyPrecipIn,Conditions,Clouds,dailyrainin,SoftwareType,DateUTC
2013-01-29 06:55:00,18.2,17.0,30.14,NNE,14,0.0,0.0,95,0.00,,,0.00,Wunderground v.1.15,2013-01-29 11:55:00,
2013-01-29 06:57:00,18.2,17.0,30.13,NNE,14,0.0,1.0,95,0.00,,,0.00,Wunderground v.1.15,2013-01-29 11:57:00,
2013-01-29 06:59:00,18.2,17.0,30.13,NNE,20,0.0,2.0,95,0.00,,,0.00,Wunderground v.1.15,2013-01-29 11:59:00,
2013-01-29 07:05:00,18.2,16.8,30.13,NNE,19,1.0,4.0,94,0.00,,,0.00,Wunderground v.1.15,2013-01-29 12:05:00,
2013-01-29 07:06:00,18.2,16.8,30.13,NNE,19,1.0,4.0,94,0.00,,,0.00,Wunderground v.1.15,2013-01-29 12:06:00,
2013-01-29 07:11:00,18.1,16.7,30.14,NNE,19,1.0,4.0,94,0.00,,,0.00,Wunderground v.1.15,2013-01-29 12:11:00,
2013-01-29 07:16:00,18.2,16.8,30.14,NNE,19,0.0,4.0,94,0.00,,,0.00,Wunderground v.1.15,2013-01-29 12:16:00,
2013-01-29 07:21:00,18.2,16.8,30.14,NNE,19,0.0,4.0,94,0.00,,,0.00,Wunderground v.1.15,2013-01-29 12:21:00,
2013-01-29 07:27:00,18.2,16.8,30.13,NNE,19,0.0,4.0,94,0.00,,,0.00,Wunderground v.1.15,2013-01-29 12:27:00,
2013-01-29 07:32:00,18.2,16.8,30.13,NNE,19,0.0,4.0,94,0.00,,,0.00,Wunderground v.1.15,2013-01-29 12:32:00,
2013-01-29 07:37:00,18.1,16.7,30.14,NNE,19,0.0,4.0,94,0.00,,,0.00,Wunderground v.1.15,2013-01-29 12:37:00,
2013-01-29 07:43:00,18.2,16.8,30.14,NNE,19,0.0,4.0,94,0.00,,,0.00,Wunderground v.1.15,2013-01-29 12:43:00,
2013-01-29 07:48:00,18.2,16.8,30.15,NNE,19,0.0,4.0,94,0.00,,,0.00,Wunderground v.1.15,2013-01-29 12:48:00,
2013-01-29 07:54:00,18.4,17.0,30.15,NNE,19,0.0,4.0,94,0.00,,,0.00,Wunderground v.1.15,2013-01-29 12:54:00,
2013-01-29 07:59:00,18.5,17.1,30.16,NNE,19,0.0,4.0,94,0.00,,,0.00,Wunderground v.1.15,2013-01-29 12:59:00,
2013-01-29 08:04:00,18.7,17.3,30.17,WNW,302,0.0,4.0,94,0.00,,,0.00,Wunderground v.1.15,2013-01-29 13:04:00,
2013-01-29 08:09:00,18.9,17.5,30.16,WNW,302,0.0,4.0,94,0.00,,,0.00,Wunderground v.1.15,2013-01-29 13:09:00,
2013-01-29 08:15:00,19.0,17.6,30.16,North,355,0.0,4.0,94,0.00,,,0.00,Wunderground v.1.15,2013-01-29 13:15:00,
2013-01-29 08:20:00,19.1,17.7,30.16,North,5,1.0,4.0,94,0.00,,,0.00,Wunderground v.1.15,2013-01-29 13:20:00,
2013-01-29 08:25:00,19.3,17.9,30.16,North,360,2.0,4.0,94,0.00,,,0.00,Wunderground v.1.15,2013-01-29 13:25:00,
2013-01-29 08:30:00,19.4,18.0,30.17,North,5,2.0,2.0,94,0.00,,,0.00,Wunderground v.1.15,2013-01-29 13:30:00,
2013-01-29 08:35:00,19.6,18.2,30.18,North,350,2.0,4.0,94,0.00,,,0.00,Wunderground v.1.15,2013-01-29 13:35:00,
2013-01-29 08:40:00,19.8,18.1,30.18,North,355,2.0,4.0,93,0.00,,,0.00,Wunderground v.1.15,2013-01-29 13:40:00,
2013-01-29 08:45:00,19.9,18.2,30.18,North,355,2.0,4.0,93,0.00,,,0.00,Wunderground v.1.15,2013-01-29 13:45:00,
2013-01-29 08:50:00,20.1,18.4,30.18,North,5,2.0,4.0,93,0.00,,,0.00,Wunderground v.1.15,2013-01-29 13:50:00,
2013-01-29 08:55:00,20.3,18.6,30.18,North,11,2.0,4.0,93,0.00,,,0.00,Wunderground v.1.15,2013-01-29 13:55:00,
2013-01-29 09:00:00,20.3,18.6,30.19,North,9,3.0,4.0,93,0.00,,,0.00,Wunderground v.1.15,2013-01-29 14:00:00,
2013-01-29 09:06:00,20.4,18.4,30.19,NNE,13,3.0,4.0,92,0.00,,,0.00,Wunderground v.1.15,2013-01-29 14:06:00,
2013-01-29 09:12:00,20.5,18.5,30.18,North,9,3.0,4.0,92,0.00,,,0.00,Wunderground v.1.15,2013-01-29 14:12:00,
2013-01-29 09:17:00,20.7,19.0,30.19,North,9,2.0,4.0,93,0.00,,,0.00,Wunderground v.1.15,2013-01-29 14:17:00,
2013-01-29 09:22:00,20.9,18.9,30.20,North,9,1.0,4.0,92,0.00,,,0.00,Wunderground v.1.15,2013-01-29 14:22:00,
2013-01-29 09:28:00,21.2,19.2,30.20,North,5,1.0,4.0,92,0.00,,,0.00,Wunderground v.1.15,2013-01-29 14:28:00,
2013-01-29 09:33:00,21.3,19.3,30.20,NNE,13,2.0,4.0,92,0.00,,,0.00,Wunderground v.1.15,2013-01-29 14:33:00,
2013-01-29 09:38:00,21.4,19.4,30.20,NNE,13,2.0,4.0,92,0.00,,,0.00,Wunderground v.1.15,2013-01-29 14:38:00,
2013-01-29 09:43:00,21.6,19.6,30.20,NNE,12,2.0,4.0,92,0.00,,,0.00,Wunderground v.1.15,2013-01-29 14:43:00,
2013-01-29 09:48:00,21.9,19.9,30.21,NNE,12,1.0,4.0,92,0.00,,,0.00,Wunderground v.1.15,2013-01-29 14:48:00,
2013-01-29 09:54:00,22.1,20.1,30.21,NNE,12,1.0,4.0,92,0.00,,,0.00,Wunderground v.1.15,2013-01-29 14:54:00,
2013-01-29 09:59:00,22.3,20.3,30.21,NNE,12,1.0,4.0,92,0.00,,,0.00,Wunderground v.1.15,2013-01-29 14:59:00,
2013-01-29 10:04:00,22.5,20.3,30.21,NNE,13,2.0,4.0,91,0.00,,,0.00,Wunderground v.1.15,2013-01-29 15:04:00,
2013-01-29 10:09:00,22.9,20.7,30.21,NNE,13,2.0,4.0,91,0.00,,,0.00,Wunderground v.1.15,2013-01-29 15:09:00,
2013-01-29 10:14:00,23.3,21.1,30.21,NNE,13,1.0,4.0,91,0.00,,,0.00,Wunderground v.1.15,2013-01-29 15:14:00,
2013-01-29 10:19:00,23.7,21.5,30.22,North,350,1.0,4.0,91,0.00,,,0.00,Wunderground v.1.15,2013-01-29 15:19:00,
2013-01-29 10:25:00,24.0,21.5,30.22,NW,318,1.0,4.0,90,0.00,,,0.00,Wunderground v.1.15,2013-01-29 15:25:00,
2013-01-29 10:30:00,24.1,21.3,30.22,NNW,332,2.0,4.0,89,0.00,,,0.00,Wunderground v.1.15,2013-01-29 15:30:00,
2013-01-29 10:35:00,24.3,21.5,30.22,NNW,344,1.0,4.0,89,0.00,,,0.00,Wunderground v.1.15,2013-01-29 15:35:00,
2013-01-29 10:41:00,24.5,21.5,30.22,North,5,2.0,4.0,88,0.00,,,0.00,Wunderground v.1.15,2013-01-29 15:41:00,
2013-01-29 10:47:00,24.6,21.6,30.22,WNW,294,2.0,4.0,88,0.00,,,0.00,Wunderground v.1.15,2013-01-29 15:47:00,
2013-01-29 10:53:00,24.7,21.7,30.23,NW,306,2.0,4.0,88,0.00,,,0.00,Wunderground v.1.15,2013-01-29 15:53:00,
2013-01-29 10:58:00,24.8,22.0,30.23,NW,324,2.0,4.0,89,0.00,,,0.00,Wunderground v.1.15,2013-01-29 15:58:00,
2013-01-29 11:03:00,25.0,22.2,30.22,North,355,2.0,4.0,89,0.00,,,0.00,Wunderground v.1.15,2013-01-29 16:03:00,
2013-01-29 11:09:00,25.4,22.6,30.22,North,355,2.0,4.0,89,0.00,,,0.01,Wunderground v.1.15,2013-01-29 16:09:00,
2013-01-29 11:14:00,25.6,22.8,30.22,NNE,13,2.0,4.0,89,0.00,,,0.01,Wunderground v.1.15,2013-01-29 16:14:00,
2013-01-29 11:19:00,25.7,22.6,30.21,North,351,2.0,4.0,88,0.00,,,0.01,Wunderground v.1.15,2013-01-29 16:19:00,
2013-01-29 11:25:00,26.1,23.3,30.21,North,351,1.0,4.0,89,0.00,,,0.01,Wunderground v.1.15,2013-01-29 16:25:00,
2013-01-29 11:30:00,26.4,23.3,30.22,North,351,1.0,1.0,88,0.00,,,0.01,Wunderground v.1.15,2013-01-29 16:30:00,
2013-01-29 11:36:00,26.9,23.8,30.21,North,351,1.0,4.0,88,0.00,,,0.02,Wunderground v.1.15,2013-01-29 16:36:00,
2013-01-29 11:41:00,27.1,23.7,30.21,NW,315,0.0,4.0,87,0.00,,,0.02,Wunderground v.1.15,2013-01-29 16:41:00,
2013-01-29 11:46:00,27.5,24.4,30.21,NW,315,0.0,4.0,88,0.05,,,0.03,Wunderground v.1.15,2013-01-29 16:46:00,
2013-01-29 11:51:00,28.1,24.7,30.20,NW,315,0.0,4.0,87,0.05,,,0.03,Wunderground v.1.15,2013-01-29 16:51:00,
2013-01-29 11:56:00,28.3,24.4,30.20,NW,315,0.0,4.0,85,0.05,,,0.03,Wunderground v.1.15,2013-01-29 16:56:00,
2013-01-29 12:01:00,28.7,24.8,30.19,NW,315,0.0,4.0,85,0.00,,,0.03,Wunderground v.1.15,2013-01-29 17:01:00,
2013-01-29 12:07:00,28.4,24.5,30.19,ENE,57,1.0,4.0,85,0.00,,,0.04,Wunderground v.1.15,2013-01-29 17:07:00,
2013-01-29 12:12:00,28.4,24.5,30.20,ENE,59,2.0,4.0,85,0.00,,,0.04,Wunderground v.1.15,2013-01-29 17:12:00,
2013-01-29 12:17:00,28.5,24.8,30.19,ENE,59,1.0,4.0,86,0.05,,,0.05,Wunderground v.1.15,2013-01-29 17:17:00,
2013-01-29 12:23:00,28.8,24.9,30.18,ENE,59,1.0,4.0,85,0.05,,,0.05,Wunderground v.1.15,2013-01-29 17:23:00,
2013-01-29 12:28:00,29.2,25.3,30.19,ENE,59,0.0,4.0,85,0.05,,,0.05,Wunderground v.1.15,2013-01-29 17:28:00,
2013-01-29 12:33:00,29.9,25.9,30.18,ENE,59,0.0,4.0,85,0.00,,,0.05,Wunderground v.1.15,2013-01-29 17:33:00,
2013-01-29 12:38:00,30.2,25.7,30.18,ENE,59,0.0,4.0,83,0.00,,,0.06,Wunderground v.1.15,2013-01-29 17:38:00,
2013-01-29 12:43:00,29.7,24.9,30.18,NNE,17,1.0,4.0,82,0.00,,,0.06,Wunderground v.1.15,2013-01-29 17:43:00,
2013-01-29 12:48:00,29.7,25.5,30.18,NNE,17,1.0,4.0,84,0.00,,,0.06,Wunderground v.1.15,2013-01-29 17:48:00,
2013-01-29 12:54:00,30.1,25.6,30.18,NNE,19,0.0,4.0,83,0.00,,,0.06,Wunderground v.1.15,2013-01-29 17:54:00,
2013-01-29 12:59:00,30.1,25.8,30.18,NNE,19,0.0,4.0,84,0.00,,,0.07,Wunderground v.1.15,2013-01-29 17:59:00,
2013-01-29 13:05:00,30.3,25.8,30.18,NNE,19,0.0,4.0,83,0.00,,,0.07,Wunderground v.1.15,2013-01-29 18:05:00,
2013-01-29 13:11:00,30.0,25.5,30.18,NNE,19,0.0,4.0,83,0.00,,,0.07,Wunderground v.1.15,2013-01-29 18:11:00,
2013-01-29 13:17:00,29.7,25.2,30.18,NNE,15,1.0,4.0,83,0.00,,,0.07,Wunderground v.1.15,2013-01-29 18:17:00,
2013-01-29 13:23:00,29.5,25.3,30.18,North,11,2.0,4.0,84,0.00,,,0.07,Wunderground v.1.15,2013-01-29 18:23:00,
2013-01-29 13:28:00,29.7,25.7,30.18,NW,323,2.0,4.0,85,0.00,,,0.07,Wunderground v.1.15,2013-01-29 18:28:00,
2013-01-29 13:33:00,29.8,25.6,30.18,NW,323,1.0,4.0,84,0.00,,,0.07,Wunderground v.1.15,2013-01-29 18:33:00,
2013-01-29 13:39:00,29.9,25.9,30.19,NW,323,0.0,4.0,85,0.00,,,0.07,Wunderground v.1.15,2013-01-29 18:39:00,
2013-01-29 13:44:00,30.3,26.3,30.19,NW,323,0.0,4.0,85,0.00,,,0.07,Wunderground v.1.15,2013-01-29 18:44:00,
2013-01-29 13:49:00,30.4,26.1,30.20,NW,318,0.0,4.0,84,0.00,,,0.08,Wunderground v.1.15,2013-01-29 18:49:00,
2013-01-29 13:54:00,30.5,26.2,30.20,NW,318,0.0,4.0,84,0.00,,,0.08,Wunderground v.1.15,2013-01-29 18:54:00,
2013-01-29 13:59:00,30.5,26.0,30.20,NW,318,0.0,4.0,83,0.00,,,0.08,Wunderground v.1.15,2013-01-29 18:59:00,
2013-01-29 14:04:00,30.5,26.2,30.20,NW,318,0.0,4.0,84,0.00,,,0.08,Wunderground v.1.15,2013-01-29 19:04:00,
2013-01-29 14:10:00,30.8,26.5,30.20,NW,318,0.0,4.0,84,0.00,,,0.08,Wunderground v.1.15,2013-01-29 19:10:00,
2013-01-29 14:15:00,30.8,26.2,30.20,NW,318,0.0,4.0,83,0.00,,,0.08,Wunderground v.1.15,2013-01-29 19:15:00,
2013-01-29 14:21:00,30.8,26.5,30.20,NW,318,0.0,4.0,84,0.00,,,0.08,Wunderground v.1.15,2013-01-29 19:21:00,
2013-01-29 14:26:00,30.9,26.3,30.20,NW,318,0.0,4.0,83,0.00,,,0.08,Wunderground v.1.15,2013-01-29 19:26:00,
2013-01-29 14:31:00,30.8,26.5,30.19,NNE,13,1.0,4.0,84,0.00,,,0.08,Wunderground v.1.15,2013-01-29 19:31:00,
2013-01-29 14:36:00,30.7,26.4,30.19,NNE,23,1.0,4.0,84,0.00,,,0.08,Wunderground v.1.15,2013-01-29 19:36:00,
2013-01-29 14:41:00,30.7,26.7,30.19,NNE,23,1.0,2.0,85,0.00,,,0.08,Wunderground v.1.15,2013-01-29 19:41:00,
2013-01-29 14:46:00,30.6,26.9,30.19,East,97,1.0,4.0,86,0.00,,,0.08,Wunderground v.1.15,2013-01-29 19:46:00,
2013-01-29 14:51:00,30.6,26.9,30.18,East,97,1.0,4.0,86,0.00,,,0.08,Wunderground v.1.15,2013-01-29 19:51:00,
2013-01-29 14:56:00,30.5,26.8,30.18,East,97,1.0,4.0,86,0.00,,,0.08,Wunderground v.1.15,2013-01-29 19:56:00,
2013-01-29 15:02:00,30.5,26.8,30.18,East,98,1.0,4.0,86,0.00,,,0.08,Wunderground v.1.15,2013-01-29 20:02:00,
2013-01-29 15:07:00,30.5,26.8,30.18,East,98,1.0,4.0,86,0.00,,,0.08,Wunderground v.1.15,2013-01-29 20:07:00,
2013-01-29 15:12:00,30.5,26.8,30.17,East,98,1.0,4.0,86,0.00,,,0.08,Wunderground v.1.15,2013-01-29 20:12:00,
2013-01-29 15:17:00,30.5,27.1,30.17,East,98,1.0,4.0,87,0.00,,,0.08,Wunderground v.1.15,2013-01-29 20:17:00,
2013-01-29 15:23:00,30.6,27.2,30.17,East,98,1.0,4.0,87,0.00,,,0.08,Wunderground v.1.15,2013-01-29 20:23:00,
2013-01-29 15:28:00,30.6,27.2,30.17,East,98,1.0,4.0,87,0.00,,,0.08,Wunderground v.1.15,2013-01-29 20:28:00,
2013-01-29 15:33:00,30.6,27.2,30.17,East,98,1.0,4.0,87,0.00,,,0.08,Wunderground v.1.15,2013-01-29 20:33:00,
2013-01-29 15:38:00,30.6,27.2,30.17,East,98,1.0,4.0,87,0.00,,,0.08,Wunderground v.1.15,2013-01-29 20:38:00,
2013-01-29 15:44:00,30.5,27.1,30.16,East,98,2.0,4.0,87,0.00,,,0.08,Wunderground v.1.15,2013-01-29 20:44:00,
2013-01-29 15:49:00,30.3,26.9,30.16,East,91,2.0,4.0,87,0.00,,,0.08,Wunderground v.1.15,2013-01-29 20:49:00,
2013-01-29 15:55:00,30.3,26.9,30.16,East,97,2.0,4.0,87,0.00,,,0.08,Wunderground v.1.15,2013-01-29 20:55:00,
2013-01-29 16:01:00,30.2,26.8,30.17,ESE,109,0.0,4.0,87,0.00,,,0.09,Wunderground v.1.15,2013-01-29 21:01:00,
2013-01-29 16:06:00,30.2,27.1,30.17,ESE,109,0.0,4.0,88,0.00,,,0.09,Wunderground v.1.15,2013-01-29 21:06:00,
2013-01-29 16:11:00,30.2,27.1,30.17,ESE,119,0.0,4.0,88,0.00,,,0.09,Wunderground v.1.15,2013-01-29 21:11:00,
2013-01-29 16:17:00,30.2,27.1,30.18,ESE,119,1.0,4.0,88,0.00,,,0.09,Wunderground v.1.15,2013-01-29 21:17:00,
2013-01-29 16:22:00,30.1,27.0,30.18,ESE,119,0.0,4.0,88,0.00,,,0.09,Wunderground v.1.15,2013-01-29 21:22:00,
2013-01-29 16:27:00,30.0,27.2,30.19,ESE,119,0.0,4.0,89,0.00,,,0.09,Wunderground v.1.15,2013-01-29 21:27:00,
2013-01-29 16:32:00,29.8,27.0,30.19,ESE,119,0.0,4.0,89,0.00,,,0.09,Wunderground v.1.15,2013-01-29 21:32:00,
2013-01-29 16:38:00,29.6,26.8,30.18,ESE,119,0.0,4.0,89,0.00,,,0.09,Wunderground v.1.15,2013-01-29 21:38:00,
2013-01-29 16:43:00,29.3,26.5,30.19,ESE,119,0.0,4.0,89,0.00,,,0.09,Wunderground v.1.15,2013-01-29 21:43:00,
2013-01-29 16:48:00,29.1,26.5,30.19,ESE,119,0.0,4.0,90,0.00,,,0.09,Wunderground v.1.15,2013-01-29 21:48:00,
2013-01-29 16:54:00,28.9,26.6,30.19,ESE,119,0.0,4.0,91,0.00,,,0.09,Wunderground v.1.15,2013-01-29 21:54:00,
2013-01-29 17:00:00,28.7,26.1,30.20,ESE,119,0.0,4.0,90,0.00,,,0.09,Wunderground v.1.15,2013-01-29 22:00:00,
2013-01-29 17:05:00,28.7,26.7,30.20,ESE,119,0.0,4.0,92,0.00,,,0.09,Wunderground v.1.15,2013-01-29 22:05:00,
2013-01-29 17:10:00,28.7,26.7,30.19,ESE,119,0.0,4.0,92,0.00,,,0.09,Wunderground v.1.15,2013-01-29 22:10:00,
2013-01-29 17:16:00,28.7,26.9,30.20,ESE,119,0.0,4.0,93,0.00,,,0.09,Wunderground v.1.15,2013-01-29 22:16:00,
2013-01-29 17:21:00,28.8,27.0,30.20,ESE,119,0.0,4.0,93,0.00,,,0.09,Wunderground v.1.15,2013-01-29 22:21:00,
2013-01-29 17:26:00,28.8,27.0,30.20,ESE,119,0.0,4.0,93,0.00,,,0.09,Wunderground v.1.15,2013-01-29 22:26:00,
2013-01-29 17:31:00,28.9,27.1,30.20,ESE,119,0.0,4.0,93,0.00,,,0.09,Wunderground v.1.15,2013-01-29 22:31:00,
2013-01-29 17:37:00,29.0,27.2,30.20,ESE,119,0.0,4.0,93,0.00,,,0.09,Wunderground v.1.15,2013-01-29 22:37:00,
2013-01-29 17:42:00,29.1,27.3,30.19,ESE,119,0.0,4.0,93,0.00,,,0.09,Wunderground v.1.15,2013-01-29 22:42:00,
2013-01-29 17:48:00,29.2,27.4,30.20,ESE,119,0.0,4.0,93,0.00,,,0.09,Wunderground v.1.15,2013-01-29 22:48:00,
2013-01-29 17:53:00,29.2,27.4,30.20,ESE,119,0.0,4.0,93,0.00,,,0.09,Wunderground v.1.15,2013-01-29 22:53:00,
2013-01-29 17:59:00,29.3,27.5,30.20,ESE,119,0.0,4.0,93,0.00,,,0.09,Wunderground v.1.15,2013-01-29 22:59:00,
2013-01-29 18:05:00,29.3,27.5,30.21,ESE,119,0.0,4.0,93,0.00,,,0.09,Wunderground v.1.15,2013-01-29 23:05:00,
2013-01-29 18:11:00,29.2,27.4,30.21,ESE,119,0.0,4.0,93,0.00,,,0.09,Wunderground v.1.15,2013-01-29 23:11:00,
2013-01-29 18:17:00,29.2,27.7,30.21,ESE,119,0.0,4.0,94,0.00,,,0.09,Wunderground v.1.15,2013-01-29 23:17:00,
2013-01-29 18:22:00,29.3,27.8,30.22,ESE,119,0.0,4.0,94,0.00,,,0.09,Wunderground v.1.15,2013-01-29 23:22:00,
2013-01-29 18:27:00,29.3,27.8,30.22,ESE,119,0.0,4.0,94,0.00,,,0.09,Wunderground v.1.15,2013-01-29 23:27:00,
2013-01-29 18:32:00,29.3,27.8,30.23,ESE,119,0.0,4.0,94,0.00,,,0.09,Wunderground v.1.15,2013-01-29 23:32:00,
2013-01-29 18:37:00,29.3,27.8,30.23,ESE,119,0.0,4.0,94,0.00,,,0.09,Wunderground v.1.15,2013-01-29 23:37:00,
2013-01-29 18:42:00,29.3,27.8,30.22,ESE,119,0.0,4.0,94,0.00,,,0.09,Wunderground v.1.15,2013-01-29 23:42:00,
2013-01-29 18:48:00,29.3,27.8,30.22,ESE,119,0.0,4.0,94,0.00,,,0.09,Wunderground v.1.15,2013-01-29 23:48:00,
2013-01-29 18:53:00,29.2,27.7,30.22,ESE,119,0.0,4.0,94,0.00,,,0.09,Wunderground v.1.15,2013-01-29 23:53:00,
2013-01-29 18:59:00,29.2,27.7,30.21,ESE,119,0.0,4.0,94,0.00,,,0.09,Wunderground v.1.15,2013-01-29 23:59:00,
2013-01-29 19:05:00,29.2,27.7,30.20,ESE,119,0.0,4.0,94,0.00,,,0.09,Wunderground v.1.15,2013-01-30 00:05:00,
2013-01-29 19:15:00,29.2,27.9,30.20,ESE,119,0.0,4.0,95,0.00,,,0.09,Wunderground v.1.15,2013-01-30 00:15:00,
2013-01-29 19:20:00,29.3,28.0,30.20,ESE,119,0.0,4.0,95,0.00,,,0.09,Wunderground v.1.15,2013-01-30 00:20:00,
2013-01-29 19:25:00,29.3,28.0,30.20,ESE,119,0.0,4.0,95,0.00,,,0.09,Wunderground v.1.15,2013-01-30 00:25:00,
2013-01-29 19:31:00,29.3,28.0,30.21,ESE,119,0.0,4.0,95,0.00,,,0.09,Wunderground v.1.15,2013-01-30 00:31:00,
2013-01-29 19:36:00,29.3,28.0,30.20,ESE,119,0.0,4.0,95,0.00,,,0.09,Wunderground v.1.15,2013-01-30 00:36:00,
2013-01-29 19:42:00,29.3,28.0,30.20,ESE,119,0.0,4.0,95,0.00,,,0.09,Wunderground v.1.15,2013-01-30 00:42:00,
2013-01-29 19:47:00,29.2,27.9,30.20,ESE,119,0.0,4.0,95,0.00,,,0.09,Wunderground v.1.15,2013-01-30 00:47:00,
2013-01-29 19:52:00,29.2,27.9,30.20,ESE,119,0.0,4.0,95,0.00,,,0.09,Wunderground v.1.15,2013-01-30 00:52:00,
2013-01-29 19:58:00,29.2,27.9,30.21,ESE,119,0.0,4.0,95,0.00,,,0.09,Wunderground v.1.15,2013-01-30 00:58:00,
2013-01-29 20:03:00,29.2,28.2,30.20,ESE,119,0.0,4.0,96,0.00,,,0.09,Wunderground v.1.15,2013-01-30 01:03:00,
2013-01-29 20:08:00,29.2,28.2,30.20,ESE,119,0.0,4.0,96,0.00,,,0.09,Wunderground v.1.15,2013-01-30 01:08:00,
2013-01-29 20:13:00,29.1,28.1,30.20,ESE,119,0.0,4.0,96,0.00,,,0.09,Wunderground v.1.15,2013-01-30 01:13:00,
2013-01-29 20:19:00,29.1,28.1,30.20,ESE,119,0.0,4.0,96,0.00,,,0.09,Wunderground v.1.15,2013-01-30 01:19:00,
2013-01-29 20:24:00,29.2,28.2,30.20,ESE,119,0.0,4.0,96,0.00,,,0.09,Wunderground v.1.15,2013-01-30 01:24:00,
2013-01-29 20:29:00,29.2,28.2,30.20,ESE,119,0.0,4.0,96,0.00,,,0.09,Wunderground v.1.15,2013-01-30 01:29:00,
2013-01-29 20:34:00,29.2,28.2,30.20,ESE,119,0.0,4.0,96,0.00,,,0.09,Wunderground v.1.15,2013-01-30 01:34:00,
2013-01-29 20:39:00,29.2,28.2,30.19,ESE,119,0.0,4.0,96,0.00,,,0.09,Wunderground v.1.15,2013-01-30 01:39:00,
2013-01-29 20:44:00,29.2,28.2,30.19,ESE,119,0.0,4.0,96,0.00,,,0.09,Wunderground v.1.15,2013-01-30 01:44:00,
2013-01-29 20:49:00,29.2,28.2,30.18,ESE,119,0.0,4.0,96,0.00,,,0.09,Wunderground v.1.15,2013-01-30 01:49:00,
2013-01-29 20:55:00,29.2,28.2,30.18,ESE,119,0.0,4.0,96,0.00,,,0.09,Wunderground v.1.15,2013-01-30 01:55:00,
2013-01-29 21:00:00,29.2,28.2,30.18,ESE,119,0.0,4.0,96,0.00,,,0.09,Wunderground v.1.15,2013-01-30 02:00:00,
2013-01-29 21:05:00,29.3,28.3,30.18,North,11,0.0,4.0,96,0.00,,,0.09,Wunderground v.1.15,2013-01-30 02:05:00,
2013-01-29 21:11:00,29.3,28.3,30.18,North,11,0.0,4.0,96,0.00,,,0.09,Wunderground v.1.15,2013-01-30 02:11:00,
2013-01-29 21:17:00,29.3,28.3,30.19,North,11,0.0,4.0,96,0.00,,,0.09,Wunderground v.1.15,2013-01-30 02:17:00,
2013-01-29 21:22:00,29.4,28.4,30.19,North,11,0.0,4.0,96,0.00,,,0.09,Wunderground v.1.15,2013-01-30 02:22:00,
2013-01-29 21:28:00,29.4,28.4,30.19,North,11,0.0,4.0,96,0.00,,,0.09,Wunderground v.1.15,2013-01-30 02:28:00,
2013-01-29 21:33:00,29.4,28.4,30.19,North,11,0.0,4.0,96,0.00,,,0.09,Wunderground v.1.15,2013-01-30 02:33:00,
2013-01-29 21:38:00,29.5,28.5,30.19,North,11,0.0,4.0,96,0.00,,,0.09,Wunderground v.1.15,2013-01-30 02:38:00,
2013-01-29 21:44:00,29.5,28.5,30.19,North,11,0.0,4.0,96,0.00,,,0.09,Wunderground v.1.15,2013-01-30 02:44:00,
2013-01-29 21:50:00,29.6,28.6,30.19,North,11,0.0,4.0,96,0.00,,,0.09,Wunderground v.1.15,2013-01-30 02:50:00,
2013-01-29 21:56:00,29.6,28.6,30.18,North,11,0.0,4.0,96,0.00,,,0.09,Wunderground v.1.15,2013-01-30 02:56:00,
2013-01-29 22:01:00,29.6,28.6,30.18,North,11,0.0,4.0,96,0.00,,,0.09,Wunderground v.1.15,2013-01-30 03:01:00,
2013-01-29 22:06:00,29.6,28.6,30.18,North,11,0.0,4.0,96,0.00,,,0.09,Wunderground v.1.15,2013-01-30 03:06:00,
2013-01-29 22:11:00,29.7,28.7,30.18,North,11,0.0,4.0,96,0.00,,,0.09,Wunderground v.1.15,2013-01-30 03:11:00,
2013-01-29 22:16:00,29.7,28.7,30.19,North,11,0.0,4.0,96,0.00,,,0.09,Wunderground v.1.15,2013-01-30 03:16:00,
2013-01-29 22:21:00,29.7,28.7,30.19,North,11,0.0,4.0,96,0.00,,,0.09,Wunderground v.1.15,2013-01-30 03:21:00,
2013-01-29 22:27:00,29.7,28.7,30.18,North,11,0.0,4.0,96,0.00,,,0.09,Wunderground v.1.15,2013-01-30 03:27:00,
2013-01-29 22:33:00,29.7,28.7,30.18,North,11,0.0,4.0,96,0.00,,,0.09,Wunderground v.1.15,2013-01-30 03:33:00,
2013-01-29 22:38:00,29.7,28.7,30.18,North,11,0.0,4.0,96,0.00,,,0.09,Wunderground v.1.15,2013-01-30 03:38:00,
2013-01-29 22:43:00,29.8,28.8,30.17,North,11,0.0,4.0,96,0.00,,,0.09,Wunderground v.1.15,2013-01-30 03:43:00,
2013-01-29 22:48:00,29.8,28.8,30.17,North,11,0.0,4.0,96,0.00,,,0.09,Wunderground v.1.15,2013-01-30 03:48:00,
2013-01-29 22:54:00,29.8,28.8,30.17,North,11,0.0,4.0,96,0.00,,,0.09,Wunderground v.1.15,2013-01-30 03:54:00,